sensor_id;sensor_type;location;lat;lon;timestamp;P1;durP1;ratioP1;P2;durP2;ratioP2
31730;SDS011;18310;55.586;12.286;2022-09-09T00:00:17;12.93;;;2.67;;
31730;SDS011;18310;55.586;12.286;2022-09-09T00:03:24;8.93;;;2.45;;
31730;SDS011;18310;55.586;12.286;2022-09-09T00:06:43;3.92;;;1.60;;
31730;SDS011;18310;55.586;12.286;2022-09-09T00:09:53;8.15;;;2.00;;
31730;SDS011;18310;55.586;12.286;2022-09-09T00:13:13;6.68;;;2.05;;
31730;SDS011;18310;55.586;12.286;2022-09-09T00:16:25;3.97;;;1.65;;
31730;SDS011;18310;55.586;12.286;2022-09-09T00:19:38;4.50;;;1.65;;
31730;SDS011;18310;55.586;12.286;2022-09-09T00:22:55;5.50;;;2.20;;
31730;SDS011;18310;55.586;12.286;2022-09-09T00:26:09;7.07;;;1.80;;
31730;SDS011;18310;55.586;12.286;2022-09-09T00:29:22;7.53;;;1.83;;
31730;SDS011;18310;55.586;12.286;2022-09-09T00:32:34;7.90;;;1.75;;
31730;SDS011;18310;55.586;12.286;2022-09-09T00:35:38;4.25;;;1.52;;
31730;SDS011;18310;55.586;12.286;2022-09-09T00:38:48;6.35;;;1.95;;
31730;SDS011;18310;55.586;12.286;2022-09-09T00:42:02;3.78;;;1.67;;
31730;SDS011;18310;55.586;12.286;2022-09-09T00:45:19;6.00;;;2.10;;
31730;SDS011;18310;55.586;12.286;2022-09-09T00:49:04;3.58;;;1.40;;
31730;SDS011;18310;55.586;12.286;2022-09-09T00:52:20;3.97;;;1.60;;
31730;SDS011;18310;55.586;12.286;2022-09-09T00:55:39;10.52;;;2.05;;
31730;SDS011;18310;55.586;12.286;2022-09-09T00:58:51;5.05;;;2.10;;
31730;SDS011;18310;55.586;12.286;2022-09-09T01:02:07;5.78;;;1.77;;
31730;SDS011;18310;55.586;12.286;2022-09-09T01:05:27;10.07;;;2.40;;
31730;SDS011;18310;55.586;12.286;2022-09-09T01:08:43;10.25;;;1.70;;
31730;SDS011;18310;55.586;12.286;2022-09-09T01:12:17;6.70;;;1.92;;
31730;SDS011;18310;55.586;12.286;2022-09-09T01:15:28;3.47;;;1.77;;
31730;SDS011;18310;55.586;12.286;2022-09-09T01:18:36;4.80;;;2.17;;
31730;SDS011;18310;55.586;12.286;2022-09-09T01:21:47;11.20;;;2.20;;
31730;SDS011;18310;55.586;12.286;2022-09-09T01:28:33;7.15;;;2.50;;
31730;SDS011;18310;55.586;12.286;2022-09-09T01:31:39;7.05;;;2.25;;
31730;SDS011;18310;55.586;12.286;2022-09-09T01:34:53;5.10;;;2.30;;
31730;SDS011;18310;55.586;12.286;2022-09-09T01:37:57;5.63;;;2.20;;
31730;SDS011;18310;55.586;12.286;2022-09-09T01:41:00;7.18;;;2.08;;
31730;SDS011;18310;55.586;12.286;2022-09-09T01:44:06;6.13;;;2.58;;
31730;SDS011;18310;55.586;12.286;2022-09-09T01:47:10;10.40;;;2.95;;
31730;SDS011;18310;55.586;12.286;2022-09-09T01:50:15;8.33;;;2.37;;
31730;SDS011;18310;55.586;12.286;2022-09-09T01:53:19;4.32;;;2.00;;
31730;SDS011;18310;55.586;12.286;2022-09-09T01:56:28;3.92;;;2.00;;
31730;SDS011;18310;55.586;12.286;2022-09-09T01:59:50;3.25;;;1.75;;
31730;SDS011;18310;55.586;12.286;2022-09-09T02:03:08;7.15;;;2.53;;
31730;SDS011;18310;55.586;12.286;2022-09-09T02:06:25;6.03;;;2.13;;
31730;SDS011;18310;55.586;12.286;2022-09-09T02:09:36;8.15;;;2.20;;
31730;SDS011;18310;55.586;12.286;2022-09-09T02:12:43;3.63;;;1.75;;
31730;SDS011;18310;55.586;12.286;2022-09-09T02:15:54;3.92;;;1.75;;
31730;SDS011;18310;55.586;12.286;2022-09-09T02:19:04;3.30;;;1.60;;
31730;SDS011;18310;55.586;12.286;2022-09-09T02:22:14;4.07;;;2.17;;
31730;SDS011;18310;55.586;12.286;2022-09-09T02:25:22;3.35;;;1.88;;
31730;SDS011;18310;55.586;12.286;2022-09-09T02:28:31;6.45;;;2.47;;
31730;SDS011;18310;55.586;12.286;2022-09-09T02:31:39;4.88;;;1.80;;
31730;SDS011;18310;55.586;12.286;2022-09-09T02:34:49;5.15;;;2.28;;
31730;SDS011;18310;55.586;12.286;2022-09-09T02:37:59;5.43;;;1.70;;
31730;SDS011;18310;55.586;12.286;2022-09-09T02:41:06;5.47;;;2.25;;
31730;SDS011;18310;55.586;12.286;2022-09-09T02:44:10;9.80;;;2.95;;
31730;SDS011;18310;55.586;12.286;2022-09-09T02:47:27;7.45;;;2.80;;
31730;SDS011;18310;55.586;12.286;2022-09-09T02:50:39;6.13;;;2.33;;
31730;SDS011;18310;55.586;12.286;2022-09-09T02:53:57;6.70;;;2.78;;
31730;SDS011;18310;55.586;12.286;2022-09-09T02:57:12;10.15;;;3.58;;
31730;SDS011;18310;55.586;12.286;2022-09-09T03:00:22;9.27;;;3.15;;
31730;SDS011;18310;55.586;12.286;2022-09-09T03:03:28;6.15;;;3.20;;
31730;SDS011;18310;55.586;12.286;2022-09-09T03:06:32;7.30;;;2.65;;
31730;SDS011;18310;55.586;12.286;2022-09-09T03:09:36;4.80;;;2.10;;
31730;SDS011;18310;55.586;12.286;2022-09-09T03:12:40;5.88;;;2.30;;
31730;SDS011;18310;55.586;12.286;2022-09-09T03:15:43;7.38;;;2.88;;
31730;SDS011;18310;55.586;12.286;2022-09-09T03:18:48;5.15;;;3.05;;
31730;SDS011;18310;55.586;12.286;2022-09-09T03:21:52;4.28;;;2.50;;
31730;SDS011;18310;55.586;12.286;2022-09-09T03:24:56;4.65;;;2.47;;
31730;SDS011;18310;55.586;12.286;2022-09-09T03:27:59;5.50;;;2.70;;
31730;SDS011;18310;55.586;12.286;2022-09-09T03:31:04;5.07;;;2.38;;
31730;SDS011;18310;55.586;12.286;2022-09-09T03:34:14;4.15;;;2.38;;
31730;SDS011;18310;55.586;12.286;2022-09-09T03:37:18;4.97;;;2.28;;
31730;SDS011;18310;55.586;12.286;2022-09-09T03:40:23;4.18;;;1.90;;
31730;SDS011;18310;55.586;12.286;2022-09-09T03:43:27;3.95;;;2.10;;
31730;SDS011;18310;55.586;12.286;2022-09-09T03:46:31;3.08;;;1.95;;
31730;SDS011;18310;55.586;12.286;2022-09-09T03:49:36;7.85;;;2.47;;
31730;SDS011;18310;55.586;12.286;2022-09-09T03:52:39;4.05;;;1.77;;
31730;SDS011;18310;55.586;12.286;2022-09-09T03:55:45;4.78;;;1.85;;
31730;SDS011;18310;55.586;12.286;2022-09-09T03:58:49;3.78;;;1.60;;
31730;SDS011;18310;55.586;12.286;2022-09-09T04:01:53;4.57;;;2.37;;
31730;SDS011;18310;55.586;12.286;2022-09-09T04:05:00;2.97;;;1.75;;
31730;SDS011;18310;55.586;12.286;2022-09-09T04:08:03;8.25;;;1.75;;
31730;SDS011;18310;55.586;12.286;2022-09-09T04:11:06;5.60;;;2.23;;
31730;SDS011;18310;55.586;12.286;2022-09-09T04:14:10;5.00;;;2.35;;
31730;SDS011;18310;55.586;12.286;2022-09-09T04:17:14;4.57;;;2.60;;
31730;SDS011;18310;55.586;12.286;2022-09-09T04:20:18;4.57;;;2.60;;
31730;SDS011;18310;55.586;12.286;2022-09-09T04:23:23;5.28;;;2.47;;
31730;SDS011;18310;55.586;12.286;2022-09-09T04:26:28;4.25;;;2.20;;
31730;SDS011;18310;55.586;12.286;2022-09-09T04:29:31;6.20;;;2.70;;
31730;SDS011;18310;55.586;12.286;2022-09-09T04:32:34;6.33;;;2.50;;
31730;SDS011;18310;55.586;12.286;2022-09-09T04:35:39;5.50;;;2.60;;
31730;SDS011;18310;55.586;12.286;2022-09-09T04:38:48;4.22;;;2.10;;
31730;SDS011;18310;55.586;12.286;2022-09-09T04:41:51;5.83;;;2.13;;
31730;SDS011;18310;55.586;12.286;2022-09-09T04:44:54;5.80;;;2.67;;
31730;SDS011;18310;55.586;12.286;2022-09-09T04:47:58;4.37;;;2.17;;
31730;SDS011;18310;55.586;12.286;2022-09-09T04:54:09;4.82;;;2.53;;
31730;SDS011;18310;55.586;12.286;2022-09-09T04:57:13;8.00;;;2.80;;
31730;SDS011;18310;55.586;12.286;2022-09-09T05:00:19;10.35;;;2.42;;
31730;SDS011;18310;55.586;12.286;2022-09-09T05:06:28;3.50;;;2.25;;
31730;SDS011;18310;55.586;12.286;2022-09-09T05:09:32;5.15;;;2.40;;
31730;SDS011;18310;55.586;12.286;2022-09-09T05:12:35;6.03;;;2.60;;
31730;SDS011;18310;55.586;12.286;2022-09-09T05:15:38;4.57;;;2.47;;
31730;SDS011;18310;55.586;12.286;2022-09-09T05:18:45;5.43;;;2.78;;
31730;SDS011;18310;55.586;12.286;2022-09-09T05:21:51;4.25;;;2.40;;
31730;SDS011;18310;55.586;12.286;2022-09-09T05:24:54;7.25;;;2.55;;
31730;SDS011;18310;55.586;12.286;2022-09-09T05:27:58;4.37;;;1.93;;
31730;SDS011;18310;55.586;12.286;2022-09-09T05:31:03;3.97;;;2.05;;
31730;SDS011;18310;55.586;12.286;2022-09-09T05:34:10;5.60;;;2.40;;
31730;SDS011;18310;55.586;12.286;2022-09-09T05:37:15;6.85;;;2.40;;
31730;SDS011;18310;55.586;12.286;2022-09-09T05:40:19;3.90;;;2.10;;
31730;SDS011;18310;55.586;12.286;2022-09-09T05:43:23;4.45;;;2.58;;
31730;SDS011;18310;55.586;12.286;2022-09-09T05:46:28;4.40;;;2.72;;
31730;SDS011;18310;55.586;12.286;2022-09-09T05:49:32;3.55;;;2.15;;
31730;SDS011;18310;55.586;12.286;2022-09-09T05:52:37;4.40;;;2.30;;
31730;SDS011;18310;55.586;12.286;2022-09-09T05:55:40;4.82;;;2.15;;
31730;SDS011;18310;55.586;12.286;2022-09-09T05:58:46;6.57;;;2.30;;
31730;SDS011;18310;55.586;12.286;2022-09-09T06:01:50;6.72;;;1.90;;
31730;SDS011;18310;55.586;12.286;2022-09-09T06:04:54;5.40;;;1.98;;
31730;SDS011;18310;55.586;12.286;2022-09-09T06:08:02;3.42;;;1.95;;
31730;SDS011;18310;55.586;12.286;2022-09-09T06:11:06;4.45;;;2.20;;
31730;SDS011;18310;55.586;12.286;2022-09-09T06:14:11;6.00;;;2.03;;
31730;SDS011;18310;55.586;12.286;2022-09-09T06:17:15;5.18;;;2.35;;
31730;SDS011;18310;55.586;12.286;2022-09-09T06:20:18;4.55;;;1.95;;
31730;SDS011;18310;55.586;12.286;2022-09-09T06:23:24;5.20;;;2.35;;
31730;SDS011;18310;55.586;12.286;2022-09-09T06:26:29;4.28;;;1.80;;
31730;SDS011;18310;55.586;12.286;2022-09-09T06:29:35;5.00;;;2.30;;
31730;SDS011;18310;55.586;12.286;2022-09-09T06:32:38;4.43;;;2.40;;
31730;SDS011;18310;55.586;12.286;2022-09-09T06:35:42;3.80;;;2.08;;
31730;SDS011;18310;55.586;12.286;2022-09-09T06:38:55;5.10;;;2.30;;
31730;SDS011;18310;55.586;12.286;2022-09-09T06:41:59;3.58;;;2.72;;
31730;SDS011;18310;55.586;12.286;2022-09-09T06:45:10;5.57;;;2.78;;
31730;SDS011;18310;55.586;12.286;2022-09-09T06:48:13;5.18;;;3.25;;
31730;SDS011;18310;55.586;12.286;2022-09-09T06:51:18;4.75;;;3.13;;
31730;SDS011;18310;55.586;12.286;2022-09-09T06:54:24;5.05;;;3.00;;
31730;SDS011;18310;55.586;12.286;2022-09-09T06:57:28;4.38;;;3.03;;
31730;SDS011;18310;55.586;12.286;2022-09-09T07:00:38;6.43;;;3.67;;
31730;SDS011;18310;55.586;12.286;2022-09-09T07:03:42;5.80;;;3.43;;
31730;SDS011;18310;55.586;12.286;2022-09-09T07:06:49;4.70;;;2.75;;
31730;SDS011;18310;55.586;12.286;2022-09-09T07:09:55;5.97;;;3.50;;
31730;SDS011;18310;55.586;12.286;2022-09-09T07:12:58;6.57;;;3.40;;
31730;SDS011;18310;55.586;12.286;2022-09-09T07:16:03;4.18;;;2.60;;
31730;SDS011;18310;55.586;12.286;2022-09-09T07:19:08;4.32;;;2.67;;
31730;SDS011;18310;55.586;12.286;2022-09-09T07:22:12;3.90;;;2.50;;
31730;SDS011;18310;55.586;12.286;2022-09-09T07:25:17;4.25;;;2.72;;
31730;SDS011;18310;55.586;12.286;2022-09-09T07:28:22;3.97;;;2.20;;
31730;SDS011;18310;55.586;12.286;2022-09-09T07:31:27;3.50;;;2.08;;
31730;SDS011;18310;55.586;12.286;2022-09-09T07:34:32;3.35;;;2.30;;
31730;SDS011;18310;55.586;12.286;2022-09-09T07:37:36;3.27;;;2.17;;
31730;SDS011;18310;55.586;12.286;2022-09-09T07:40:41;4.15;;;2.33;;
31730;SDS011;18310;55.586;12.286;2022-09-09T07:43:45;3.63;;;2.13;;
31730;SDS011;18310;55.586;12.286;2022-09-09T07:46:50;4.28;;;1.92;;
31730;SDS011;18310;55.586;12.286;2022-09-09T07:49:53;3.13;;;1.90;;
31730;SDS011;18310;55.586;12.286;2022-09-09T07:52:57;4.25;;;2.28;;
31730;SDS011;18310;55.586;12.286;2022-09-09T07:56:06;3.00;;;1.80;;
31730;SDS011;18310;55.586;12.286;2022-09-09T07:59:11;3.33;;;1.85;;
31730;SDS011;18310;55.586;12.286;2022-09-09T08:02:15;2.95;;;1.58;;
31730;SDS011;18310;55.586;12.286;2022-09-09T08:05:19;3.50;;;1.67;;
31730;SDS011;18310;55.586;12.286;2022-09-09T08:08:23;2.90;;;1.70;;
31730;SDS011;18310;55.586;12.286;2022-09-09T08:11:28;3.83;;;1.80;;
31730;SDS011;18310;55.586;12.286;2022-09-09T08:14:39;4.90;;;1.88;;
31730;SDS011;18310;55.586;12.286;2022-09-09T08:17:42;4.22;;;1.75;;
31730;SDS011;18310;55.586;12.286;2022-09-09T08:20:46;3.50;;;2.22;;
31730;SDS011;18310;55.586;12.286;2022-09-09T08:23:50;2.80;;;1.70;;
31730;SDS011;18310;55.586;12.286;2022-09-09T08:26:59;2.80;;;1.80;;
31730;SDS011;18310;55.586;12.286;2022-09-09T08:30:03;3.30;;;1.90;;
31730;SDS011;18310;55.586;12.286;2022-09-09T08:33:08;2.95;;;2.00;;
31730;SDS011;18310;55.586;12.286;2022-09-09T08:36:13;4.60;;;2.20;;
31730;SDS011;18310;55.586;12.286;2022-09-09T08:39:19;4.25;;;2.05;;
31730;SDS011;18310;55.586;12.286;2022-09-09T08:42:28;3.47;;;2.15;;
31730;SDS011;18310;55.586;12.286;2022-09-09T08:45:42;4.40;;;2.67;;
31730;SDS011;18310;55.586;12.286;2022-09-09T08:49:01;3.30;;;2.30;;
31730;SDS011;18310;55.586;12.286;2022-09-09T08:52:19;3.83;;;2.17;;
31730;SDS011;18310;55.586;12.286;2022-09-09T08:55:33;4.05;;;2.40;;
31730;SDS011;18310;55.586;12.286;2022-09-09T08:58:45;3.47;;;2.15;;
31730;SDS011;18310;55.586;12.286;2022-09-09T09:01:55;3.97;;;2.20;;
31730;SDS011;18310;55.586;12.286;2022-09-09T09:05:18;3.00;;;2.17;;
31730;SDS011;18310;55.586;12.286;2022-09-09T09:11:43;3.10;;;1.85;;
31730;SDS011;18310;55.586;12.286;2022-09-09T09:14:53;3.42;;;2.25;;
31730;SDS011;18310;55.586;12.286;2022-09-09T09:17:58;4.05;;;2.60;;
31730;SDS011;18310;55.586;12.286;2022-09-09T09:21:03;4.15;;;2.90;;
31730;SDS011;18310;55.586;12.286;2022-09-09T09:24:16;3.97;;;2.60;;
31730;SDS011;18310;55.586;12.286;2022-09-09T09:27:27;4.85;;;3.03;;
31730;SDS011;18310;55.586;12.286;2022-09-09T09:30:39;4.30;;;2.80;;
31730;SDS011;18310;55.586;12.286;2022-09-09T09:33:49;4.22;;;3.03;;
31730;SDS011;18310;55.586;12.286;2022-09-09T09:36:55;4.57;;;2.97;;
31730;SDS011;18310;55.586;12.286;2022-09-09T09:40:09;4.72;;;2.97;;
31730;SDS011;18310;55.586;12.286;2022-09-09T09:43:17;6.38;;;3.30;;
31730;SDS011;18310;55.586;12.286;2022-09-09T09:46:28;4.97;;;3.10;;
31730;SDS011;18310;55.586;12.286;2022-09-09T09:49:31;4.93;;;3.08;;
31730;SDS011;18310;55.586;12.286;2022-09-09T09:52:35;5.80;;;3.83;;
31730;SDS011;18310;55.586;12.286;2022-09-09T09:55:44;4.78;;;2.70;;
31730;SDS011;18310;55.586;12.286;2022-09-09T09:58:55;4.50;;;3.17;;
31730;SDS011;18310;55.586;12.286;2022-09-09T10:08:43;4.85;;;3.47;;
31730;SDS011;18310;55.586;12.286;2022-09-09T10:11:50;5.10;;;3.42;;
31730;SDS011;18310;55.586;12.286;2022-09-09T10:15:11;6.20;;;4.43;;
31730;SDS011;18310;55.586;12.286;2022-09-09T10:18:38;6.65;;;3.70;;
31730;SDS011;18310;55.586;12.286;2022-09-09T10:22:02;7.40;;;3.70;;
31730;SDS011;18310;55.586;12.286;2022-09-09T10:25:34;5.20;;;3.50;;
31730;SDS011;18310;55.586;12.286;2022-09-09T10:29:01;5.13;;;3.28;;
31730;SDS011;18310;55.586;12.286;2022-09-09T10:32:33;3.08;;;2.38;;
31730;SDS011;18310;55.586;12.286;2022-09-09T10:35:45;4.70;;;2.90;;
31730;SDS011;18310;55.586;12.286;2022-09-09T10:39:01;5.57;;;2.88;;
31730;SDS011;18310;55.586;12.286;2022-09-09T10:42:08;5.13;;;3.08;;
31730;SDS011;18310;55.586;12.286;2022-09-09T10:45:17;4.13;;;3.05;;
31730;SDS011;18310;55.586;12.286;2022-09-09T10:48:29;4.60;;;2.90;;
31730;SDS011;18310;55.586;12.286;2022-09-09T10:51:46;4.30;;;2.70;;
31730;SDS011;18310;55.586;12.286;2022-09-09T10:55:07;3.78;;;2.13;;
31730;SDS011;18310;55.586;12.286;2022-09-09T10:58:17;4.95;;;2.80;;
31730;SDS011;18310;55.586;12.286;2022-09-09T11:01:32;4.13;;;2.42;;
31730;SDS011;18310;55.586;12.286;2022-09-09T11:04:48;2.65;;;1.70;;
31730;SDS011;18310;55.586;12.286;2022-09-09T11:07:59;3.25;;;1.80;;
31730;SDS011;18310;55.586;12.286;2022-09-09T11:11:11;3.35;;;1.50;;
31730;SDS011;18310;55.586;12.286;2022-09-09T11:14:22;3.97;;;2.45;;
31730;SDS011;18310;55.586;12.286;2022-09-09T11:17:39;3.92;;;2.40;;
31730;SDS011;18310;55.586;12.286;2022-09-09T11:20:51;4.22;;;2.40;;
31730;SDS011;18310;55.586;12.286;2022-09-09T11:24:03;5.30;;;2.88;;
31730;SDS011;18310;55.586;12.286;2022-09-09T11:27:14;5.13;;;3.13;;
31730;SDS011;18310;55.586;12.286;2022-09-09T11:30:26;4.50;;;2.97;;
31730;SDS011;18310;55.586;12.286;2022-09-09T11:37:31;5.97;;;3.55;;
31730;SDS011;18310;55.586;12.286;2022-09-09T11:41:06;8.40;;;4.13;;
31730;SDS011;18310;55.586;12.286;2022-09-09T11:44:25;7.38;;;4.85;;
31730;SDS011;18310;55.586;12.286;2022-09-09T11:47:32;5.85;;;3.70;;
31730;SDS011;18310;55.586;12.286;2022-09-09T11:50:39;5.50;;;3.20;;
31730;SDS011;18310;55.586;12.286;2022-09-09T11:53:57;7.47;;;3.22;;
31730;SDS011;18310;55.586;12.286;2022-09-09T11:57:05;4.93;;;3.47;;
31730;SDS011;18310;55.586;12.286;2022-09-09T12:00:32;5.25;;;3.22;;
31730;SDS011;18310;55.586;12.286;2022-09-09T12:03:40;6.57;;;3.55;;
31730;SDS011;18310;55.586;12.286;2022-09-09T12:06:50;8.10;;;3.45;;
31730;SDS011;18310;55.586;12.286;2022-09-09T12:09:57;8.00;;;5.18;;
31730;SDS011;18310;55.586;12.286;2022-09-09T12:13:15;6.93;;;5.15;;
31730;SDS011;18310;55.586;12.286;2022-09-09T12:16:30;7.43;;;5.03;;
31730;SDS011;18310;55.586;12.286;2022-09-09T12:19:36;10.07;;;6.50;;
31730;SDS011;18310;55.586;12.286;2022-09-09T12:22:42;8.63;;;5.63;;
31730;SDS011;18310;55.586;12.286;2022-09-09T12:29:28;10.35;;;6.13;;
31730;SDS011;18310;55.586;12.286;2022-09-09T12:32:45;13.20;;;5.63;;
31730;SDS011;18310;55.586;12.286;2022-09-09T12:35:51;7.65;;;4.80;;
31730;SDS011;18310;55.586;12.286;2022-09-09T12:39:09;8.50;;;4.70;;
31730;SDS011;18310;55.586;12.286;2022-09-09T12:42:27;8.13;;;4.50;;
31730;SDS011;18310;55.586;12.286;2022-09-09T12:45:44;9.93;;;6.30;;
31730;SDS011;18310;55.586;12.286;2022-09-09T12:52:01;9.80;;;6.43;;
31730;SDS011;18310;55.586;12.286;2022-09-09T12:55:15;9.38;;;5.68;;
31730;SDS011;18310;55.586;12.286;2022-09-09T12:58:22;9.10;;;5.30;;
31730;SDS011;18310;55.586;12.286;2022-09-09T13:01:29;8.52;;;5.95;;
31730;SDS011;18310;55.586;12.286;2022-09-09T13:04:35;8.18;;;5.75;;
31730;SDS011;18310;55.586;12.286;2022-09-09T13:07:38;9.83;;;6.40;;
31730;SDS011;18310;55.586;12.286;2022-09-09T13:10:43;10.00;;;6.73;;
31730;SDS011;18310;55.586;12.286;2022-09-09T13:13:55;13.57;;;6.43;;
31730;SDS011;18310;55.586;12.286;2022-09-09T13:17:03;10.35;;;5.80;;
31730;SDS011;18310;55.586;12.286;2022-09-09T13:20:15;8.07;;;5.90;;
31730;SDS011;18310;55.586;12.286;2022-09-09T13:23:20;12.40;;;5.35;;
31730;SDS011;18310;55.586;12.286;2022-09-09T13:26:25;10.05;;;5.80;;
31730;SDS011;18310;55.586;12.286;2022-09-09T13:29:30;12.52;;;6.38;;
31730;SDS011;18310;55.586;12.286;2022-09-09T13:32:36;8.15;;;5.72;;
31730;SDS011;18310;55.586;12.286;2022-09-09T13:35:45;8.65;;;5.38;;
31730;SDS011;18310;55.586;12.286;2022-09-09T13:38:55;8.70;;;5.75;;
31730;SDS011;18310;55.586;12.286;2022-09-09T13:42:02;7.65;;;5.25;;
31730;SDS011;18310;55.586;12.286;2022-09-09T13:45:15;9.95;;;5.63;;
31730;SDS011;18310;55.586;12.286;2022-09-09T13:48:26;9.05;;;4.72;;
31730;SDS011;18310;55.586;12.286;2022-09-09T13:51:35;6.97;;;4.43;;
31730;SDS011;18310;55.586;12.286;2022-09-09T13:54:40;8.73;;;5.20;;
31730;SDS011;18310;55.586;12.286;2022-09-09T13:57:51;6.60;;;4.63;;
31730;SDS011;18310;55.586;12.286;2022-09-09T14:00:55;7.03;;;4.93;;
31730;SDS011;18310;55.586;12.286;2022-09-09T14:04:01;8.40;;;4.70;;
31730;SDS011;18310;55.586;12.286;2022-09-09T14:07:05;7.97;;;4.93;;
31730;SDS011;18310;55.586;12.286;2022-09-09T14:10:08;6.33;;;4.43;;
31730;SDS011;18310;55.586;12.286;2022-09-09T14:13:12;8.38;;;5.03;;
31730;SDS011;18310;55.586;12.286;2022-09-09T14:16:17;9.73;;;5.00;;
31730;SDS011;18310;55.586;12.286;2022-09-09T14:19:23;6.35;;;4.35;;
31730;SDS011;18310;55.586;12.286;2022-09-09T14:22:26;9.32;;;4.50;;
31730;SDS011;18310;55.586;12.286;2022-09-09T14:25:29;9.73;;;4.55;;
31730;SDS011;18310;55.586;12.286;2022-09-09T14:28:34;9.45;;;4.72;;
31730;SDS011;18310;55.586;12.286;2022-09-09T14:31:54;6.47;;;4.75;;
31730;SDS011;18310;55.586;12.286;2022-09-09T14:34:59;9.30;;;6.07;;
31730;SDS011;18310;55.586;12.286;2022-09-09T14:38:03;6.95;;;4.88;;
31730;SDS011;18310;55.586;12.286;2022-09-09T14:44:12;9.85;;;5.47;;
31730;SDS011;18310;55.586;12.286;2022-09-09T14:47:17;9.13;;;5.60;;
31730;SDS011;18310;55.586;12.286;2022-09-09T14:50:23;7.22;;;5.32;;
31730;SDS011;18310;55.586;12.286;2022-09-09T14:53:27;7.43;;;5.53;;
31730;SDS011;18310;55.586;12.286;2022-09-09T14:56:31;9.23;;;6.72;;
31730;SDS011;18310;55.586;12.286;2022-09-09T14:59:36;9.43;;;5.93;;
31730;SDS011;18310;55.586;12.286;2022-09-09T15:02:40;9.13;;;4.72;;
31730;SDS011;18310;55.586;12.286;2022-09-09T15:05:45;9.52;;;5.68;;
31730;SDS011;18310;55.586;12.286;2022-09-09T15:08:49;10.77;;;5.85;;
31730;SDS011;18310;55.586;12.286;2022-09-09T15:11:55;9.20;;;6.15;;
31730;SDS011;18310;55.586;12.286;2022-09-09T15:14:58;7.57;;;5.13;;
31730;SDS011;18310;55.586;12.286;2022-09-09T15:18:01;7.75;;;5.63;;
31730;SDS011;18310;55.586;12.286;2022-09-09T15:21:07;9.55;;;5.90;;
31730;SDS011;18310;55.586;12.286;2022-09-09T15:24:12;7.60;;;5.35;;
31730;SDS011;18310;55.586;12.286;2022-09-09T15:30:22;7.70;;;5.70;;
31730;SDS011;18310;55.586;12.286;2022-09-09T15:33:25;9.20;;;5.87;;
31730;SDS011;18310;55.586;12.286;2022-09-09T15:36:32;9.07;;;6.13;;
31730;SDS011;18310;55.586;12.286;2022-09-09T15:39:37;12.27;;;6.40;;
31730;SDS011;18310;55.586;12.286;2022-09-09T15:42:40;9.55;;;6.68;;
31730;SDS011;18310;55.586;12.286;2022-09-09T15:45:46;9.35;;;5.95;;
31730;SDS011;18310;55.586;12.286;2022-09-09T15:48:55;9.23;;;5.60;;
31730;SDS011;18310;55.586;12.286;2022-09-09T15:52:02;9.63;;;6.47;;
31730;SDS011;18310;55.586;12.286;2022-09-09T15:55:06;10.90;;;7.40;;
31730;SDS011;18310;55.586;12.286;2022-09-09T15:58:10;13.10;;;6.78;;
31730;SDS011;18310;55.586;12.286;2022-09-09T16:01:13;15.60;;;6.67;;
31730;SDS011;18310;55.586;12.286;2022-09-09T16:04:18;11.45;;;6.93;;
31730;SDS011;18310;55.586;12.286;2022-09-09T16:07:26;10.30;;;7.30;;
31730;SDS011;18310;55.586;12.286;2022-09-09T16:10:29;12.77;;;6.75;;
31730;SDS011;18310;55.586;12.286;2022-09-09T16:13:33;11.77;;;6.97;;
31730;SDS011;18310;55.586;12.286;2022-09-09T16:16:39;10.25;;;6.80;;
31730;SDS011;18310;55.586;12.286;2022-09-09T16:19:43;9.45;;;6.35;;
31730;SDS011;18310;55.586;12.286;2022-09-09T16:22:48;9.15;;;5.32;;
31730;SDS011;18310;55.586;12.286;2022-09-09T16:25:53;6.95;;;5.05;;
31730;SDS011;18310;55.586;12.286;2022-09-09T16:28:57;9.32;;;5.82;;
31730;SDS011;18310;55.586;12.286;2022-09-09T16:32:03;7.95;;;5.18;;
31730;SDS011;18310;55.586;12.286;2022-09-09T16:35:07;6.38;;;4.72;;
31730;SDS011;18310;55.586;12.286;2022-09-09T16:38:12;7.97;;;4.70;;
31730;SDS011;18310;55.586;12.286;2022-09-09T16:41:17;10.95;;;5.00;;
31730;SDS011;18310;55.586;12.286;2022-09-09T16:44:21;9.10;;;5.20;;
31730;SDS011;18310;55.586;12.286;2022-09-09T16:47:24;7.40;;;5.28;;
31730;SDS011;18310;55.586;12.286;2022-09-09T16:50:28;10.05;;;5.28;;
31730;SDS011;18310;55.586;12.286;2022-09-09T16:53:35;7.30;;;5.05;;
31730;SDS011;18310;55.586;12.286;2022-09-09T16:56:38;8.07;;;5.05;;
31730;SDS011;18310;55.586;12.286;2022-09-09T16:59:44;8.07;;;5.43;;
31730;SDS011;18310;55.586;12.286;2022-09-09T17:02:50;7.90;;;5.43;;
31730;SDS011;18310;55.586;12.286;2022-09-09T17:05:54;7.53;;;4.88;;
31730;SDS011;18310;55.586;12.286;2022-09-09T17:09:01;6.22;;;4.60;;
31730;SDS011;18310;55.586;12.286;2022-09-09T17:12:07;8.18;;;4.85;;
31730;SDS011;18310;55.586;12.286;2022-09-09T17:15:11;8.20;;;4.80;;
31730;SDS011;18310;55.586;12.286;2022-09-09T17:18:14;7.85;;;5.28;;
31730;SDS011;18310;55.586;12.286;2022-09-09T17:21:19;8.55;;;5.43;;
31730;SDS011;18310;55.586;12.286;2022-09-09T17:24:26;8.18;;;5.25;;
31730;SDS011;18310;55.586;12.286;2022-09-09T17:27:30;8.35;;;5.13;;
31730;SDS011;18310;55.586;12.286;2022-09-09T17:30:34;9.05;;;4.85;;
31730;SDS011;18310;55.586;12.286;2022-09-09T17:33:40;9.15;;;5.22;;
31730;SDS011;18310;55.586;12.286;2022-09-09T17:36:47;10.13;;;5.80;;
31730;SDS011;18310;55.586;12.286;2022-09-09T17:39:52;8.40;;;5.40;;
31730;SDS011;18310;55.586;12.286;2022-09-09T17:42:57;9.13;;;5.60;;
31730;SDS011;18310;55.586;12.286;2022-09-09T17:46:07;14.93;;;6.13;;
31730;SDS011;18310;55.586;12.286;2022-09-09T17:49:16;6.72;;;4.85;;
31730;SDS011;18310;55.586;12.286;2022-09-09T17:52:20;7.63;;;5.22;;
31730;SDS011;18310;55.586;12.286;2022-09-09T17:55:25;9.75;;;4.72;;
31730;SDS011;18310;55.586;12.286;2022-09-09T17:58:29;7.90;;;4.95;;
31730;SDS011;18310;55.586;12.286;2022-09-09T18:01:33;6.70;;;4.53;;
31730;SDS011;18310;55.586;12.286;2022-09-09T18:04:40;8.18;;;4.40;;
31730;SDS011;18310;55.586;12.286;2022-09-09T18:07:48;10.45;;;4.95;;
31730;SDS011;18310;55.586;12.286;2022-09-09T18:10:55;7.30;;;5.38;;
31730;SDS011;18310;55.586;12.286;2022-09-09T18:13:59;8.90;;;5.40;;
31730;SDS011;18310;55.586;12.286;2022-09-09T18:17:06;8.68;;;5.20;;
31730;SDS011;18310;55.586;12.286;2022-09-09T18:20:11;7.22;;;5.32;;
31730;SDS011;18310;55.586;12.286;2022-09-09T18:23:14;9.73;;;5.10;;
31730;SDS011;18310;55.586;12.286;2022-09-09T18:26:19;9.27;;;4.87;;
31730;SDS011;18310;55.586;12.286;2022-09-09T18:29:26;8.30;;;5.32;;
31730;SDS011;18310;55.586;12.286;2022-09-09T18:32:30;6.35;;;4.15;;
31730;SDS011;18310;55.586;12.286;2022-09-09T18:35:40;12.27;;;4.78;;
31730;SDS011;18310;55.586;12.286;2022-09-09T18:38:52;8.05;;;5.22;;
31730;SDS011;18310;55.586;12.286;2022-09-09T18:41:59;8.27;;;5.47;;
31730;SDS011;18310;55.586;12.286;2022-09-09T18:45:04;8.25;;;4.90;;
31730;SDS011;18310;55.586;12.286;2022-09-09T18:48:09;8.15;;;5.80;;
31730;SDS011;18310;55.586;12.286;2022-09-09T18:51:14;6.70;;;5.53;;
31730;SDS011;18310;55.586;12.286;2022-09-09T18:54:23;8.25;;;5.03;;
31730;SDS011;18310;55.586;12.286;2022-09-09T18:57:33;7.00;;;4.82;;
31730;SDS011;18310;55.586;12.286;2022-09-09T19:00:38;7.30;;;5.03;;
31730;SDS011;18310;55.586;12.286;2022-09-09T19:03:41;9.10;;;4.90;;
31730;SDS011;18310;55.586;12.286;2022-09-09T19:06:45;6.97;;;4.87;;
31730;SDS011;18310;55.586;12.286;2022-09-09T19:09:52;8.25;;;5.20;;